createdAt,value
2019-05-11T00:04:50.814Z,18.40
2019-05-11T00:09:57.966Z,15.95
2019-05-11T00:14:58.914Z,16.60
2019-05-11T00:20:03.284Z,16.32
2019-05-11T00:25:06.639Z,16.67
2019-05-11T00:30:10.011Z,15.63
2019-05-11T00:35:13.129Z,18.45
2019-05-11T00:40:17.597Z,16.02
2019-05-11T00:45:20.645Z,16.42
2019-05-11T00:50:37.877Z,14.75
2019-05-11T00:55:28.638Z,14.13
2019-05-11T01:00:31.845Z,14.60
2019-05-11T01:05:34.878Z,13.65
2019-05-11T01:10:42.078Z,15.03
2019-05-11T01:15:45.097Z,12.90
2019-05-11T01:20:48.173Z,13.03
2019-05-11T01:25:51.961Z,12.03
2019-05-11T01:30:55.301Z,12.78
2019-05-11T01:35:58.633Z,11.75
2019-05-11T01:41:02.018Z,11.18
2019-05-11T01:46:05.315Z,10.55
2019-05-11T01:51:08.315Z,10.00
2019-05-11T01:56:11.485Z,9.83
2019-05-11T02:01:14.781Z,9.58
2019-05-11T02:06:17.840Z,10.38
2019-05-11T02:11:21.141Z,10.85
2019-05-11T02:16:26.012Z,9.23
2019-05-11T02:21:28.935Z,11.05
2019-05-11T02:26:32.085Z,9.53
2019-05-11T02:31:35.760Z,10.37
2019-05-11T02:36:38.813Z,9.83
2019-05-11T02:41:44.600Z,10.98
2019-05-11T02:46:47.574Z,9.68
2019-05-11T02:51:51.240Z,10.25
2019-05-11T02:56:54.203Z,9.98
2019-05-11T03:01:57.282Z,10.53
2019-05-11T03:07:01.698Z,10.65
2019-05-11T03:12:04.668Z,9.80
2019-05-11T03:17:14.450Z,10.10
2019-05-11T03:22:17.961Z,9.78
2019-05-11T03:27:21.312Z,10.43
2019-05-11T03:32:24.526Z,10.25
2019-05-11T03:37:27.507Z,9.73
2019-05-11T03:42:30.537Z,10.23
2019-05-11T03:47:33.625Z,10.58
2019-05-11T03:52:36.760Z,8.45
2019-05-11T03:57:40.030Z,8.78
2019-05-11T04:02:44.248Z,8.55
2019-05-11T04:07:47.388Z,8.65
2019-05-11T04:12:50.497Z,7.62
2019-05-11T04:17:53.599Z,8.23
2019-05-11T04:22:56.973Z,9.20
2019-05-11T04:27:59.967Z,10.18
2019-05-11T04:33:05.940Z,8.05
2019-05-11T04:38:09.015Z,8.33
2019-05-11T04:43:12.200Z,7.97
2019-05-11T04:48:15.255Z,8.38
2019-05-11T04:53:21.774Z,8.75
2019-05-11T04:58:24.847Z,7.60
2019-05-11T05:03:40.245Z,7.58
2019-05-11T05:08:32.711Z,8.63
2019-05-11T05:13:35.728Z,7.90
2019-05-11T05:18:42.267Z,9.73
2019-05-11T05:28:48.409Z,8.28
2019-05-11T05:33:51.505Z,8.45
2019-05-11T05:38:54.542Z,9.75
2019-05-11T05:43:59.144Z,8.85
2019-05-11T05:49:02.191Z,7.53
2019-05-11T05:54:06.318Z,6.50
2019-05-11T05:59:10.574Z,6.08
2019-05-11T06:04:13.574Z,6.15
2019-05-11T06:09:16.724Z,6.70
2019-05-11T06:14:19.821Z,5.37
2019-05-11T06:19:22.939Z,5.35
2019-05-11T06:24:25.912Z,4.95
2019-05-11T06:29:28.976Z,6.25
2019-05-11T06:34:32.009Z,7.80
2019-05-11T06:39:35.117Z,6.92
2019-05-11T06:44:38.110Z,5.40
2019-05-11T06:49:41.145Z,5.55
2019-05-11T06:54:44.404Z,4.85
2019-05-11T06:59:47.512Z,5.62
2019-05-11T07:04:50.506Z,4.80
2019-05-11T07:09:53.502Z,5.05
2019-05-11T07:14:56.715Z,4.75
2019-05-11T07:19:59.877Z,4.10
2019-05-11T07:25:04.316Z,3.70
2019-05-11T07:30:08.969Z,4.42
2019-05-11T07:35:12.609Z,4.00
2019-05-11T07:40:15.689Z,3.65
2019-05-11T07:45:18.885Z,3.85
2019-05-11T07:50:21.909Z,3.35
2019-05-11T07:55:24.864Z,4.33
2019-05-11T08:00:28.530Z,4.15
2019-05-11T08:05:31.733Z,3.52
2019-05-11T08:10:34.868Z,3.10
2019-05-11T08:15:38.345Z,3.50
2019-05-11T08:20:43.715Z,2.72
2019-05-11T08:25:53.948Z,2.90
2019-05-11T08:30:54.723Z,1.60
2019-05-11T08:35:58.403Z,2.22
2019-05-11T08:41:01.710Z,1.60
2019-05-11T08:46:04.720Z,1.85
2019-05-11T08:51:10.709Z,1.62
2019-05-11T08:56:14.494Z,1.75
2019-05-11T09:01:18.373Z,1.00
2019-05-11T09:06:21.782Z,1.67
2019-05-11T09:11:25.155Z,1.55
2019-05-11T09:16:29.067Z,1.20
2019-05-11T09:21:32.345Z,1.70
2019-05-11T09:26:38.898Z,1.77
2019-05-11T09:31:42.302Z,1.32
2019-05-11T09:36:47.816Z,1.60
2019-05-11T09:41:50.421Z,1.40
2019-05-11T09:46:53.592Z,1.80
2019-05-11T09:51:58.884Z,1.87
2019-05-11T09:57:02.064Z,1.37
2019-05-11T10:02:05.210Z,1.30
2019-05-11T10:07:08.974Z,1.82
2019-05-11T10:12:12.291Z,1.42
2019-05-11T10:17:15.478Z,1.15
2019-05-11T10:22:18.711Z,1.12
2019-05-11T10:27:21.876Z,1.17
2019-05-11T10:32:25.925Z,0.85
2019-05-11T10:37:29.018Z,1.10
2019-05-11T10:42:33.579Z,1.10
2019-05-11T10:47:38.287Z,1.50
2019-05-11T10:52:41.725Z,1.17
2019-05-11T10:57:48.741Z,1.20
2019-05-11T11:02:52.256Z,1.02
2019-05-11T11:07:58.774Z,1.20
2019-05-11T11:13:01.875Z,0.70
2019-05-11T11:18:04.970Z,1.10
2019-05-11T11:23:08.777Z,1.10
2019-05-11T11:28:12.161Z,1.20
2019-05-11T11:33:18.400Z,1.00
2019-05-11T11:38:21.521Z,0.70
2019-05-11T11:43:28.579Z,0.50
2019-05-11T11:48:29.451Z,0.72
2019-05-11T11:53:32.971Z,0.70
2019-05-11T11:58:37.997Z,0.47
2019-05-11T12:08:44.337Z,0.88
2019-05-11T12:13:47.798Z,1.05
2019-05-11T12:18:50.991Z,0.62
2019-05-11T12:23:53.940Z,0.80
2019-05-11T12:28:57.722Z,0.90
2019-05-11T12:34:00.882Z,0.70
2019-05-11T12:39:08.467Z,0.50
2019-05-11T12:44:11.757Z,0.68
2019-05-11T12:49:14.787Z,1.32
2019-05-11T12:54:18.682Z,0.40
2019-05-11T12:59:21.985Z,0.35
2019-05-11T13:04:25.041Z,0.33
2019-05-11T13:09:28.825Z,0.70
2019-05-11T13:14:32.542Z,0.70
2019-05-11T13:19:35.766Z,0.60
2019-05-11T13:24:38.760Z,0.60
2019-05-11T13:29:41.773Z,0.40
2019-05-11T13:34:44.992Z,0.55
2019-05-11T13:39:48.623Z,0.40
2019-05-11T13:44:51.798Z,0.47
2019-05-11T13:49:54.785Z,0.70
2019-05-11T13:54:58.444Z,0.80
2019-05-11T14:00:01.623Z,0.60
2019-05-11T14:05:04.747Z,0.53
2019-05-11T14:10:08.282Z,0.70
2019-05-11T14:15:11.606Z,0.80
2019-05-11T14:20:14.700Z,0.40
2019-05-11T14:25:18.571Z,0.60
2019-05-11T14:30:22.207Z,0.70
2019-05-11T14:35:25.259Z,0.90
2019-05-11T14:40:28.380Z,0.78
2019-05-11T14:45:31.406Z,0.90
2019-05-11T14:50:34.430Z,1.00
2019-05-11T14:55:38.118Z,0.70
2019-05-11T15:00:41.650Z,0.80
2019-05-11T15:05:44.814Z,1.00
2019-05-11T15:10:48.872Z,1.07
2019-05-11T15:15:52.226Z,0.75
2019-05-11T15:20:55.260Z,1.20
2019-05-11T15:25:58.722Z,0.98
2019-05-11T15:31:01.922Z,0.70
2019-05-11T15:36:04.999Z,1.00
2019-05-11T15:41:08.507Z,0.80
2019-05-11T15:46:11.602Z,1.00
2019-05-11T15:51:14.739Z,1.25
2019-05-11T15:56:19.088Z,1.12
2019-05-11T16:01:22.404Z,1.00
2019-05-11T16:06:25.460Z,1.00
2019-05-11T16:11:28.568Z,0.93
2019-05-11T16:16:31.960Z,0.80
2019-05-11T16:21:35.179Z,1.10
2019-05-11T16:26:38.280Z,0.95
2019-05-11T16:31:41.415Z,1.20
2019-05-11T16:36:44.576Z,1.10
2019-05-11T16:41:48.642Z,1.10
2019-05-11T16:46:52.143Z,1.02
2019-05-11T16:51:55.380Z,1.32
2019-05-11T16:56:58.587Z,1.90
2019-05-11T17:02:01.727Z,2.02
2019-05-11T17:07:04.873Z,2.30
2019-05-11T17:12:08.696Z,1.40
2019-05-11T17:17:11.987Z,1.10
2019-05-11T17:22:15.384Z,1.45
2019-05-11T17:27:18.491Z,1.45
2019-05-11T17:32:21.653Z,1.30
2019-05-11T17:37:24.705Z,1.25
2019-05-11T17:42:27.766Z,1.45
2019-05-11T17:47:31.150Z,1.47
2019-05-11T17:52:34.221Z,1.45
2019-05-11T17:57:38.265Z,1.60
2019-05-11T18:02:41.457Z,1.37
2019-05-11T18:07:44.516Z,1.70
2019-05-11T18:12:48.638Z,1.47
2019-05-11T18:17:52.027Z,2.27
2019-05-11T18:22:55.224Z,2.33
2019-05-11T18:27:58.439Z,2.20
2019-05-11T18:33:01.723Z,2.22
2019-05-11T18:38:05.199Z,2.45
2019-05-11T18:43:08.763Z,2.90
2019-05-11T18:48:11.992Z,3.08
2019-05-11T18:53:15.511Z,3.30
2019-05-11T18:58:18.860Z,3.17
2019-05-11T19:03:22.122Z,3.30
2019-05-11T19:08:25.253Z,2.75
2019-05-11T19:13:28.526Z,2.67
2019-05-11T19:18:31.816Z,2.67
2019-05-11T19:23:34.938Z,3.12
2019-05-11T19:28:38.460Z,2.98
2019-05-11T19:33:41.847Z,3.25
2019-05-11T19:38:44.834Z,3.37
2019-05-11T19:43:48.615Z,3.98
2019-05-11T19:48:52.458Z,5.50
2019-05-11T19:53:57.607Z,7.03
2019-05-11T19:59:00.793Z,8.30
2019-05-11T20:04:04.046Z,6.85
2019-05-11T20:09:08.710Z,6.40
2019-05-11T20:14:12.197Z,5.65
2019-05-11T20:19:15.463Z,4.58
2019-05-11T20:24:18.706Z,4.95
2019-05-11T20:29:21.984Z,4.53
2019-05-11T20:34:25.138Z,4.60
2019-05-11T20:39:28.824Z,3.90
2019-05-11T20:44:32.122Z,3.40
2019-05-11T20:49:35.174Z,4.45
2019-05-11T20:54:38.675Z,4.10
2019-05-11T20:59:42.172Z,3.90
2019-05-11T21:04:45.338Z,5.47
2019-05-11T21:09:48.438Z,8.48
2019-05-11T21:14:51.586Z,12.05
2019-05-11T21:19:55.155Z,10.05
2019-05-11T21:24:58.506Z,11.70
2019-05-11T21:30:01.597Z,8.63
2019-05-11T21:35:05.287Z,8.58
2019-05-11T21:40:09.629Z,7.83
2019-05-11T21:45:13.086Z,9.05
2019-05-11T21:50:18.830Z,10.38
2019-05-11T21:55:21.315Z,12.58
2019-05-11T22:00:28.151Z,12.28
2019-05-11T22:05:31.251Z,13.35
2019-05-11T22:10:34.520Z,12.58
2019-05-11T22:15:38.621Z,13.03
2019-05-11T22:20:42.369Z,11.88
2019-05-11T22:25:47.610Z,10.93
2019-05-11T22:30:50.493Z,9.47
2019-05-11T22:35:58.711Z,10.15
2019-05-11T22:41:01.889Z,8.50
2019-05-11T22:46:05.063Z,10.03
2019-05-11T22:51:08.123Z,9.20
2019-05-11T22:56:11.078Z,9.80
2019-05-11T23:01:14.331Z,9.80
2019-05-11T23:06:18.430Z,8.78
2019-05-11T23:11:21.621Z,9.40
2019-05-11T23:16:24.659Z,9.30
2019-05-11T23:21:29.943Z,8.95
2019-05-11T23:26:32.538Z,10.50
2019-05-11T23:31:35.680Z,8.40
2019-05-11T23:36:38.778Z,10.68
2019-05-11T23:41:41.747Z,9.88
2019-05-11T23:46:44.881Z,9.53
2019-05-11T23:51:47.925Z,10.38
2019-05-11T23:56:51.039Z,9.43
